createdAt,value
2019-03-26T00:00:22.017Z,98830.41
2019-03-26T00:02:52.111Z,98830.42
2019-03-26T00:05:22.075Z,98831.69
2019-03-26T00:07:52.110Z,98833.11
2019-03-26T00:10:22.177Z,98829.63
2019-03-26T00:12:52.387Z,98828.78
2019-03-26T00:15:22.522Z,98829.35
2019-03-26T00:17:52.463Z,98830.97
2019-03-26T00:20:22.515Z,98837.64
2019-03-26T00:22:52.596Z,98841.69
2019-03-26T00:25:22.538Z,98835.27
2019-03-26T00:27:52.986Z,98839.79
2019-03-26T00:30:22.997Z,98839.58
2019-03-26T00:32:53.042Z,98842.01
2019-03-26T00:35:23.132Z,98849.63
2019-03-26T00:37:53.272Z,98852.05
2019-03-26T00:40:23.205Z,98851.70
2019-03-26T00:42:53.174Z,98850.39
2019-03-26T00:45:23.762Z,98839.73
2019-03-26T00:47:53.802Z,98842.83
2019-03-26T00:50:23.849Z,98841.45
2019-03-26T00:52:53.914Z,98840.10
2019-03-26T00:55:23.958Z,98842.08
2019-03-26T00:57:54.013Z,98847.38
2019-03-26T01:00:39.598Z,98844.65
2019-03-26T01:03:09.705Z,98847.81
2019-03-26T01:05:39.851Z,98840.56
2019-03-26T01:08:10.210Z,98843.29
2019-03-26T01:10:40.297Z,98849.36
2019-03-26T01:13:10.353Z,98841.87
2019-03-26T01:15:40.514Z,98845.36
2019-03-26T01:18:12.148Z,98841.50
2019-03-26T01:20:42.217Z,98845.27
2019-03-26T01:23:12.307Z,98850.20
2019-03-26T01:25:42.263Z,98851.44
2019-03-26T01:28:12.185Z,98841.70
2019-03-26T01:30:42.310Z,98847.24
2019-03-26T01:33:12.375Z,98851.10
2019-03-26T01:35:42.348Z,98848.05
2019-03-26T01:38:12.978Z,98849.20
2019-03-26T01:40:43.059Z,98852.07
2019-03-26T01:43:13.120Z,98856.16
2019-03-26T01:45:43.791Z,98856.72
2019-03-26T01:48:13.745Z,98861.94
2019-03-26T01:50:44.413Z,98862.09
2019-03-26T01:53:14.495Z,98860.34
2019-03-26T01:55:44.447Z,98869.25
2019-03-26T01:58:14.416Z,98866.77
2019-03-26T02:00:44.680Z,98870.16
2019-03-26T02:03:14.746Z,98867.03
2019-03-26T02:05:46.814Z,98866.56
2019-03-26T02:08:16.957Z,98862.93
2019-03-26T02:10:47.050Z,98864.48
2019-03-26T02:13:17.101Z,98866.79
2019-03-26T02:15:47.108Z,98868.89
2019-03-26T02:18:17.427Z,98868.04
2019-03-26T02:20:47.518Z,98871.36
2019-03-26T02:23:17.608Z,98871.80
2019-03-26T02:25:47.559Z,98877.06
2019-03-26T02:28:17.638Z,98884.95
2019-03-26T02:30:49.143Z,98881.56
2019-03-26T02:33:19.102Z,98886.65
2019-03-26T02:35:49.173Z,98888.13
2019-03-26T02:38:19.764Z,98886.81
2019-03-26T02:40:50.173Z,98891.36
2019-03-26T02:43:23.360Z,98887.52
2019-03-26T02:45:53.420Z,98887.59
2019-03-26T02:48:23.771Z,98890.39
2019-03-26T02:50:54.294Z,98886.62
2019-03-26T02:53:24.630Z,98885.98
2019-03-26T02:55:54.688Z,98884.29
2019-03-26T02:58:24.958Z,98882.42
2019-03-26T03:00:54.908Z,98883.98
2019-03-26T03:03:24.854Z,98888.23
2019-03-26T03:05:54.976Z,98889.70
2019-03-26T03:08:24.920Z,98887.78
2019-03-26T03:10:54.970Z,98887.61
2019-03-26T03:13:25.076Z,98887.91
2019-03-26T03:15:55.152Z,98883.98
2019-03-26T03:18:25.064Z,98888.63
2019-03-26T03:20:55.164Z,98893.26
2019-03-26T03:23:25.246Z,98893.04
2019-03-26T03:25:55.202Z,98889.55
2019-03-26T03:28:25.278Z,98897.05
2019-03-26T03:30:55.327Z,98903.13
2019-03-26T03:33:25.405Z,98903.00
2019-03-26T03:35:55.397Z,98907.07
2019-03-26T03:38:25.357Z,98904.86
2019-03-26T03:40:55.411Z,98905.91
2019-03-26T03:43:25.736Z,98906.23
2019-03-26T03:45:55.675Z,98904.30
2019-03-26T03:48:25.928Z,98910.47
2019-03-26T03:50:57.299Z,98909.05
2019-03-26T03:53:27.944Z,98918.81
2019-03-26T03:56:01.412Z,98923.11
2019-03-26T03:58:33.007Z,98919.25
2019-03-26T04:01:02.984Z,98920.00
2019-03-26T04:03:32.972Z,98924.48
2019-03-26T04:06:09.359Z,98925.13
2019-03-26T04:08:34.908Z,98928.91
2019-03-26T04:11:04.946Z,98933.87
2019-03-26T04:13:34.895Z,98935.19
2019-03-26T04:16:04.964Z,98937.53
2019-03-26T04:18:35.412Z,98943.72
2019-03-26T04:21:05.360Z,98953.20
2019-03-26T04:23:35.318Z,98965.81
2019-03-26T04:26:05.416Z,98957.94
2019-03-26T04:28:35.477Z,98973.47
2019-03-26T04:31:05.423Z,98977.41
2019-03-26T04:33:35.553Z,98974.39
2019-03-26T04:36:07.125Z,98980.80
2019-03-26T04:38:37.300Z,98974.16
2019-03-26T04:41:07.682Z,98981.67
2019-03-26T04:43:37.608Z,98981.38
2019-03-26T04:46:08.070Z,98981.75
2019-03-26T04:48:38.154Z,98984.60
2019-03-26T04:51:08.096Z,98982.68
2019-03-26T04:53:38.025Z,98992.81
2019-03-26T04:56:08.533Z,98988.77
2019-03-26T04:58:39.119Z,98989.52
2019-03-26T05:01:09.061Z,98993.37
2019-03-26T05:03:39.068Z,98992.23
2019-03-26T05:06:09.118Z,98995.30
2019-03-26T05:08:40.500Z,98989.46
2019-03-26T05:11:11.059Z,98990.41
2019-03-26T05:13:41.124Z,98991.42
2019-03-26T05:16:11.103Z,98991.09
2019-03-26T05:18:41.054Z,98992.45
2019-03-26T05:21:11.360Z,98987.61
2019-03-26T05:23:41.670Z,98999.13
2019-03-26T05:26:11.622Z,98993.80
2019-03-26T05:28:41.577Z,98989.59
2019-03-26T05:31:11.689Z,98991.25
2019-03-26T05:33:42.254Z,98999.44
2019-03-26T05:36:12.211Z,98996.19
2019-03-26T05:38:42.219Z,99002.14
2019-03-26T05:41:13.736Z,99004.67
2019-03-26T05:43:43.863Z,99009.02
2019-03-26T05:46:13.858Z,99016.95
2019-03-26T05:48:43.923Z,99015.16
2019-03-26T05:51:14.870Z,99023.64
2019-03-26T05:53:45.999Z,99029.68
2019-03-26T05:56:18.360Z,99031.02
2019-03-26T05:58:48.410Z,99037.89
2019-03-26T06:01:18.411Z,99031.27
2019-03-26T06:03:48.502Z,99032.87
2019-03-26T06:06:18.697Z,99036.62
2019-03-26T06:08:49.055Z,99039.11
2019-03-26T06:11:19.013Z,99041.25
2019-03-26T06:13:48.956Z,99038.15
2019-03-26T06:16:19.235Z,99044.92
2019-03-26T06:18:49.321Z,99043.44
2019-03-26T06:21:19.255Z,99046.23
2019-03-26T06:23:49.301Z,99045.83
2019-03-26T06:26:19.385Z,99047.25
2019-03-26T06:28:49.362Z,99045.52
2019-03-26T06:31:19.595Z,99047.12
2019-03-26T06:33:49.669Z,99048.41
2019-03-26T06:36:19.599Z,99048.16
2019-03-26T06:38:49.666Z,99049.02
2019-03-26T06:41:19.734Z,99052.86
2019-03-26T06:43:49.781Z,99054.24
2019-03-26T06:49:01.526Z,99054.94
2019-03-26T06:51:31.526Z,99056.13
2019-03-26T06:54:03.122Z,99055.87
2019-03-26T06:56:36.502Z,99057.00
2019-03-26T06:59:06.762Z,99054.97
2019-03-26T07:01:37.074Z,99055.59
2019-03-26T07:04:07.202Z,99054.65
2019-03-26T07:06:37.322Z,99053.69
2019-03-26T07:09:08.387Z,99051.88
2019-03-26T07:11:38.583Z,99049.48
2019-03-26T07:14:08.754Z,99044.73
2019-03-26T07:16:38.744Z,99052.71
2019-03-26T07:19:08.894Z,99046.30
2019-03-26T07:21:49.123Z,99051.86
2019-03-26T07:24:10.670Z,99050.53
2019-03-26T07:26:40.678Z,99052.09
2019-03-26T07:29:10.765Z,99061.28
2019-03-26T07:31:40.873Z,99050.64
2019-03-26T07:34:11.981Z,99053.89
2019-03-26T07:36:41.933Z,99052.69
2019-03-26T07:39:12.103Z,99055.27
2019-03-26T07:41:42.236Z,99062.95
2019-03-26T07:44:12.197Z,99056.26
2019-03-26T07:46:42.153Z,99057.63
2019-03-26T07:49:12.245Z,99063.20
2019-03-26T07:51:42.271Z,99057.88
2019-03-26T07:54:12.355Z,99056.00
2019-03-26T07:56:42.454Z,99056.79
2019-03-26T07:59:12.425Z,99061.14
2019-03-26T08:01:42.383Z,99057.16
2019-03-26T08:04:12.788Z,99058.22
2019-03-26T08:06:42.849Z,99059.84
2019-03-26T08:09:12.811Z,99057.25
2019-03-26T08:11:42.863Z,99061.73
2019-03-26T08:14:12.974Z,99063.55
2019-03-26T08:16:43.031Z,99059.12
2019-03-26T08:19:14.017Z,99055.37
2019-03-26T08:21:44.031Z,99061.17
2019-03-26T08:24:14.112Z,99050.33
2019-03-26T08:26:44.217Z,99049.55
2019-03-26T08:29:14.171Z,99046.40
2019-03-26T08:31:44.345Z,99050.56
2019-03-26T08:34:14.339Z,99054.83
2019-03-26T08:36:44.312Z,99058.89
2019-03-26T08:39:14.382Z,99061.18
2019-03-26T08:41:44.510Z,99060.69
2019-03-26T08:44:14.464Z,99059.39
2019-03-26T08:46:46.307Z,99061.84
2019-03-26T08:49:16.264Z,99058.23
2019-03-26T08:51:46.326Z,99060.44
2019-03-26T08:54:16.310Z,99060.80
2019-03-26T08:56:46.314Z,99060.64
2019-03-26T08:59:16.392Z,99066.20
2019-03-26T09:01:46.461Z,99064.84
2019-03-26T09:04:16.459Z,99051.20
2019-03-26T09:06:46.493Z,99055.17
2019-03-26T09:09:16.655Z,99056.27
2019-03-26T09:11:46.659Z,99057.56
2019-03-26T09:14:16.858Z,99052.45
2019-03-26T09:16:46.950Z,99051.44
2019-03-26T09:19:17.275Z,99056.36
2019-03-26T09:21:47.236Z,99055.42
2019-03-26T09:24:17.293Z,99051.17
2019-03-26T09:26:47.521Z,99054.11
2019-03-26T09:29:17.496Z,99055.31
2019-03-26T09:31:47.458Z,99047.58
2019-03-26T09:34:17.547Z,99050.27
2019-03-26T09:36:47.615Z,99053.20
2019-03-26T09:39:17.602Z,99058.84
2019-03-26T09:41:47.635Z,99049.26
2019-03-26T09:44:17.700Z,99047.43
2019-03-26T09:46:47.829Z,99050.91
2019-03-26T09:49:17.851Z,99053.79
2019-03-26T09:51:47.776Z,99045.34
2019-03-26T09:54:17.871Z,99049.59
2019-03-26T09:56:47.950Z,99051.09
2019-03-26T09:59:17.919Z,99048.95
2019-03-26T10:01:47.872Z,99043.36
2019-03-26T10:04:17.977Z,99040.73
2019-03-26T10:06:48.027Z,99042.61
2019-03-26T10:09:17.982Z,99036.00
2019-03-26T10:11:47.971Z,99038.86
2019-03-26T10:14:18.031Z,99039.33
2019-03-26T10:16:48.091Z,99036.92
2019-03-26T10:19:18.078Z,99032.23
2019-03-26T10:21:48.038Z,99037.84
2019-03-26T10:24:18.157Z,99041.70
2019-03-26T10:27:00.523Z,99038.17
2019-03-26T10:29:31.284Z,99042.47
2019-03-26T10:32:01.502Z,99043.22
2019-03-26T10:34:32.642Z,99050.77
2019-03-26T10:37:03.750Z,99049.09
2019-03-26T10:39:33.865Z,99049.44
2019-03-26T10:42:06.908Z,99042.47
2019-03-26T10:44:35.639Z,99042.92
2019-03-26T10:47:05.734Z,99046.20
2019-03-26T10:49:35.842Z,99044.39
2019-03-26T10:52:06.176Z,99038.53
2019-03-26T10:54:36.202Z,99036.31
2019-03-26T10:57:06.178Z,99039.20
2019-03-26T10:59:36.431Z,99034.02
2019-03-26T11:02:06.660Z,99035.00
2019-03-26T11:04:36.608Z,99031.31
2019-03-26T11:07:06.751Z,99030.72
2019-03-26T11:09:36.813Z,99027.56
2019-03-26T11:12:06.752Z,99036.05
2019-03-26T11:14:36.845Z,99037.91
2019-03-26T11:17:06.907Z,99033.70
2019-03-26T11:19:36.832Z,99033.70
2019-03-26T11:22:06.836Z,99032.36
2019-03-26T11:24:36.886Z,99031.79
2019-03-26T11:27:06.968Z,99027.62
2019-03-26T11:29:36.932Z,99019.64
2019-03-26T11:32:06.986Z,99020.20
2019-03-26T11:34:37.039Z,99015.67
2019-03-26T11:37:07.163Z,99015.88
2019-03-26T11:39:49.485Z,99009.80
2019-03-26T11:42:22.194Z,99005.72
2019-03-26T11:44:52.355Z,99005.00
2019-03-26T11:47:22.634Z,99003.37
2019-03-26T11:49:53.203Z,99006.26
2019-03-26T11:52:23.620Z,99007.05
2019-03-26T11:54:53.728Z,99009.42
2019-03-26T11:57:23.675Z,99001.38
2019-03-26T11:59:53.798Z,99013.29
2019-03-26T12:02:24.054Z,99008.55
2019-03-26T12:04:54.036Z,99012.95
2019-03-26T12:07:24.165Z,99015.47
2019-03-26T12:09:54.249Z,99024.34
2019-03-26T12:12:24.940Z,99021.83
2019-03-26T12:14:54.934Z,99027.84
2019-03-26T12:17:24.882Z,99027.00
2019-03-26T12:19:54.937Z,99031.79
2019-03-26T12:22:25.038Z,99025.52
2019-03-26T12:24:54.995Z,99034.66
2019-03-26T12:27:24.944Z,99034.84
2019-03-26T12:29:55.047Z,99039.01
2019-03-26T12:32:25.011Z,99052.12
2019-03-26T12:34:55.488Z,99053.46
2019-03-26T12:37:25.617Z,99059.69
2019-03-26T12:39:59.631Z,99054.46
2019-03-26T12:42:27.228Z,99063.39
2019-03-26T12:44:57.325Z,99070.33
2019-03-26T12:47:27.412Z,99074.79
2019-03-26T12:49:57.361Z,99067.02
2019-03-26T12:52:27.406Z,99066.60
2019-03-26T12:54:57.451Z,99079.05
2019-03-26T12:57:27.569Z,99075.02
2019-03-26T12:59:57.567Z,99076.67
2019-03-26T13:02:27.602Z,99073.95
2019-03-26T13:04:57.597Z,99078.55
2019-03-26T13:07:27.902Z,99084.55
2019-03-26T13:09:58.327Z,99083.43
2019-03-26T13:12:28.363Z,99083.45
2019-03-26T13:14:59.501Z,99080.44
2019-03-26T13:17:29.759Z,99089.44
2019-03-26T13:19:59.816Z,99093.39
2019-03-26T13:22:30.098Z,99096.83
2019-03-26T13:25:00.259Z,99100.79
2019-03-26T13:27:30.300Z,99108.81
2019-03-26T13:30:00.403Z,99110.55
2019-03-26T13:32:30.476Z,99114.52
2019-03-26T13:35:00.461Z,99119.98
2019-03-26T13:37:30.460Z,99121.59
2019-03-26T13:40:00.547Z,99122.48
2019-03-26T13:42:30.595Z,99132.61
2019-03-26T13:45:00.575Z,99138.94
2019-03-26T13:47:30.518Z,99142.76
2019-03-26T13:50:00.587Z,99148.30
2019-03-26T13:52:30.606Z,99142.20
2019-03-26T13:55:00.697Z,99150.35
2019-03-26T13:57:30.759Z,99159.27
2019-03-26T14:00:00.899Z,99164.80
2019-03-26T14:02:30.855Z,99176.13
2019-03-26T14:05:00.955Z,99173.17
2019-03-26T14:07:31.054Z,99179.51
2019-03-26T14:10:01.010Z,99174.23
2019-03-26T14:12:30.991Z,99175.39
2019-03-26T14:15:01.130Z,99189.22
2019-03-26T14:17:31.285Z,99185.63
2019-03-26T14:20:01.224Z,99195.81
2019-03-26T14:22:31.544Z,99192.83
2019-03-26T14:25:01.614Z,99207.13
2019-03-26T14:27:31.676Z,99207.13
2019-03-26T14:30:03.039Z,99218.92
2019-03-26T14:32:33.101Z,99219.14
2019-03-26T14:35:03.070Z,99221.84
2019-03-26T14:37:33.224Z,99228.72
2019-03-26T14:40:04.743Z,99232.24
2019-03-26T14:42:34.838Z,99239.52
2019-03-26T14:45:05.444Z,99234.58
2019-03-26T14:47:35.382Z,99240.24
2019-03-26T14:50:06.591Z,99246.43
2019-03-26T14:52:36.836Z,99248.60
2019-03-26T14:55:07.300Z,99260.20
2019-03-26T14:57:37.273Z,99251.30
2019-03-26T15:00:08.094Z,99258.05
2019-03-26T15:02:38.154Z,99256.04
2019-03-26T15:05:09.657Z,99267.43
2019-03-26T15:07:39.665Z,99273.77
2019-03-26T15:10:09.929Z,99277.84
2019-03-26T15:12:40.135Z,99277.95
2019-03-26T15:15:10.335Z,99290.02
2019-03-26T15:17:40.266Z,99283.45
2019-03-26T15:20:10.612Z,99291.28
2019-03-26T15:22:40.881Z,99289.97
2019-03-26T15:25:11.102Z,99294.03
2019-03-26T15:27:41.059Z,99298.84
2019-03-26T15:30:12.607Z,99299.23
2019-03-26T15:32:42.721Z,99309.66
2019-03-26T15:35:12.889Z,99323.30
2019-03-26T15:37:42.877Z,99316.98
2019-03-26T15:40:13.227Z,99326.12
2019-03-26T15:42:43.285Z,99329.92
2019-03-26T15:45:14.949Z,99339.55
2019-03-26T15:47:44.871Z,99342.59
2019-03-26T15:50:19.037Z,99350.64
2019-03-26T15:52:49.038Z,99350.33
2019-03-26T15:55:19.151Z,99355.47
2019-03-26T15:57:49.654Z,99366.04
2019-03-26T16:00:22.526Z,99368.20
2019-03-26T16:02:52.483Z,99365.60
2019-03-26T16:05:22.575Z,99373.39
2019-03-26T16:07:52.773Z,99385.32
2019-03-26T16:10:22.756Z,99386.64
2019-03-26T16:12:52.770Z,99390.41
2019-03-26T16:15:22.844Z,99404.07
2019-03-26T16:17:53.022Z,99402.09
2019-03-26T16:20:23.143Z,99414.89
2019-03-26T16:22:53.113Z,99408.63
2019-03-26T16:25:23.196Z,99416.09
2019-03-26T16:27:53.330Z,99420.55
2019-03-26T16:30:23.283Z,99418.66
2019-03-26T16:32:53.351Z,99435.86
2019-03-26T16:35:23.360Z,99435.02
2019-03-26T16:37:53.368Z,99445.09
2019-03-26T16:40:23.437Z,99460.30
2019-03-26T16:42:53.729Z,99462.00
2019-03-26T16:45:24.631Z,99468.05
2019-03-26T16:47:54.669Z,99468.11
2019-03-26T16:50:24.854Z,99469.16
2019-03-26T16:52:54.927Z,99484.33
2019-03-26T16:55:24.906Z,99480.01
2019-03-26T16:57:54.936Z,99488.98
2019-03-26T17:00:33.009Z,99487.09
2019-03-26T17:03:03.332Z,99506.17
2019-03-26T17:05:33.346Z,99514.34
2019-03-26T17:08:03.344Z,99517.63
2019-03-26T17:10:33.707Z,99517.41
2019-03-26T17:13:03.721Z,99516.06
2019-03-26T17:15:34.102Z,99533.63
2019-03-26T17:18:04.333Z,99536.59
2019-03-26T17:20:34.373Z,99536.98
2019-03-26T17:23:04.504Z,99543.50
2019-03-26T17:25:34.849Z,99536.72
2019-03-26T17:28:05.173Z,99547.59
2019-03-26T17:30:35.283Z,99546.73
2019-03-26T17:33:05.711Z,99557.22
2019-03-26T17:35:36.466Z,99556.16
2019-03-26T17:38:07.180Z,99567.05
2019-03-26T17:40:37.345Z,99567.00
2019-03-26T17:43:07.322Z,99570.72
2019-03-26T17:45:37.378Z,99575.56
2019-03-26T17:48:07.473Z,99576.76
2019-03-26T17:50:37.502Z,99584.39
2019-03-26T17:53:07.628Z,99582.27
2019-03-26T17:55:37.688Z,99587.05
2019-03-26T17:58:07.835Z,99574.01
2019-03-26T18:00:46.888Z,99584.57
2019-03-26T18:03:26.312Z,99581.86
2019-03-26T18:05:48.734Z,99592.26
2019-03-26T18:08:18.760Z,99585.83
2019-03-26T18:10:48.861Z,99583.52
2019-03-26T18:13:19.024Z,99588.80
2019-03-26T18:15:49.254Z,99588.02
2019-03-26T18:18:19.413Z,99594.44
2019-03-26T18:20:49.467Z,99595.62
2019-03-26T18:23:23.124Z,99597.58
2019-03-26T18:25:53.230Z,99602.71
2019-03-26T18:28:23.293Z,99600.92
2019-03-26T18:30:56.533Z,99600.92
2019-03-26T18:33:26.497Z,99607.91
2019-03-26T18:35:59.325Z,99607.70
2019-03-26T18:38:48.189Z,99609.20
2019-03-26T18:41:21.561Z,99615.63
2019-03-26T18:43:51.512Z,99622.25
2019-03-26T18:46:21.636Z,99626.84
2019-03-26T18:48:51.773Z,99629.41
2019-03-26T18:52:14.689Z,99630.80
2019-03-26T18:54:44.768Z,99637.18
2019-03-26T18:57:14.871Z,99640.67
2019-03-26T18:59:45.400Z,99646.26
2019-03-26T19:02:15.800Z,99645.88
2019-03-26T19:04:45.769Z,99646.56
2019-03-26T19:07:15.900Z,99648.52
2019-03-26T19:09:46.182Z,99652.23
2019-03-26T19:12:16.132Z,99653.39
2019-03-26T19:14:47.315Z,99645.55
2019-03-26T19:17:17.754Z,99649.51
2019-03-26T19:19:48.399Z,99644.61
2019-03-26T19:22:18.511Z,99648.09
2019-03-26T19:24:48.698Z,99652.83
2019-03-26T19:30:25.267Z,99649.16
2019-03-26T19:32:57.651Z,99657.08
2019-03-26T19:35:29.212Z,99663.30
2019-03-26T19:37:59.133Z,99664.84
2019-03-26T19:40:29.102Z,99662.45
2019-03-26T19:43:10.181Z,99661.81
2019-03-26T19:45:31.066Z,99667.95
2019-03-26T19:48:01.644Z,99669.27
2019-03-26T19:50:31.635Z,99667.57
2019-03-26T19:53:01.684Z,99673.16
2019-03-26T19:55:31.732Z,99668.80
2019-03-26T19:58:01.873Z,99673.32
2019-03-26T20:00:32.072Z,99672.67
2019-03-26T20:03:02.086Z,99682.72
2019-03-26T20:05:35.329Z,99676.03
2019-03-26T20:08:04.570Z,99671.42
2019-03-26T20:10:34.671Z,99677.73
2019-03-26T20:13:04.741Z,99670.48
2019-03-26T20:15:34.776Z,99673.41
2019-03-26T20:18:04.641Z,99681.11
2019-03-26T20:20:34.780Z,99675.64
2019-03-26T20:23:04.737Z,99685.45
2019-03-26T20:25:34.731Z,99689.34
2019-03-26T20:28:04.901Z,99691.60
2019-03-26T20:30:40.007Z,99699.16
2019-03-26T20:33:10.534Z,99696.17
2019-03-26T20:35:40.506Z,99705.52
2019-03-26T20:38:10.562Z,99700.09
2019-03-26T20:40:40.826Z,99696.51
2019-03-26T20:43:10.783Z,99704.91
2019-03-26T20:45:40.781Z,99699.64
2019-03-26T20:48:11.179Z,99695.33
2019-03-26T20:50:41.251Z,99699.16
2019-03-26T20:53:13.187Z,99699.74
2019-03-26T20:55:53.724Z,99707.08
2019-03-26T20:58:15.026Z,99704.53
2019-03-26T21:00:46.269Z,99707.08
2019-03-26T21:03:16.244Z,99705.97
2019-03-26T21:05:46.201Z,99707.20
2019-03-26T21:08:16.252Z,99707.47
2019-03-26T21:10:46.472Z,99711.26
2019-03-26T21:13:16.423Z,99714.84
2019-03-26T21:15:56.599Z,99708.32
2019-03-26T21:18:18.197Z,99704.91
2019-03-26T21:20:48.133Z,99713.92
2019-03-26T21:23:18.180Z,99710.61
2019-03-26T21:25:48.264Z,99717.09
2019-03-26T21:28:18.597Z,99717.38
2019-03-26T21:30:48.544Z,99725.31
2019-03-26T21:33:18.795Z,99721.38
2019-03-26T21:35:48.837Z,99717.89
2019-03-26T21:38:18.776Z,99714.56
2019-03-26T21:40:48.811Z,99719.67
2019-03-26T21:43:18.867Z,99720.53
2019-03-26T21:45:48.920Z,99722.33
2019-03-26T21:48:19.272Z,99720.02
2019-03-26T21:50:49.556Z,99717.77
2019-03-26T21:53:20.195Z,99711.06
2019-03-26T21:55:50.198Z,99719.38
2019-03-26T21:58:20.715Z,99719.09
2019-03-26T22:00:50.770Z,99719.30
2019-03-26T22:03:20.746Z,99723.53
2019-03-26T22:05:50.695Z,99725.23
2019-03-26T22:08:20.743Z,99733.25
2019-03-26T22:10:51.006Z,99729.37
2019-03-26T22:13:20.947Z,99742.72
2019-03-26T22:15:50.884Z,99737.91
2019-03-26T22:18:20.977Z,99745.36
2019-03-26T22:20:51.032Z,99744.52
2019-03-26T22:23:23.022Z,99748.47
2019-03-26T22:25:53.055Z,99748.81
2019-03-26T22:28:24.583Z,99748.72
2019-03-26T22:30:54.634Z,99758.06
2019-03-26T22:33:24.968Z,99759.38
2019-03-26T22:35:56.124Z,99764.67
2019-03-26T22:38:26.227Z,99768.47
2019-03-26T22:40:56.210Z,99773.45
2019-03-26T22:43:26.241Z,99779.20
2019-03-26T22:45:56.284Z,99781.52
2019-03-26T22:48:26.272Z,99783.77
2019-03-26T22:50:56.209Z,99780.61
2019-03-26T22:53:26.250Z,99784.62
2019-03-26T22:55:56.345Z,99777.33
2019-03-26T22:58:26.282Z,99783.00
2019-03-26T23:00:56.432Z,99781.59
2019-03-26T23:03:26.418Z,99786.03
2019-03-26T23:05:56.458Z,99778.35
2019-03-26T23:08:26.394Z,99777.88
2019-03-26T23:10:56.386Z,99783.09
2019-03-26T23:13:26.423Z,99781.22
2019-03-26T23:15:56.340Z,99778.95
2019-03-26T23:18:26.469Z,99785.40
2019-03-26T23:20:56.536Z,99779.81
2019-03-26T23:23:26.497Z,99778.11
2019-03-26T23:25:56.487Z,99795.37
2019-03-26T23:28:26.533Z,99788.59
2019-03-26T23:30:56.582Z,99790.39
2019-03-26T23:33:26.596Z,99787.49
2019-03-26T23:35:56.353Z,99798.02
2019-03-26T23:38:26.399Z,99797.16
2019-03-26T23:40:56.485Z,99797.63
2019-03-26T23:48:37.839Z,99809.45
2019-03-26T23:51:07.840Z,99808.72
2019-03-26T23:53:37.979Z,99815.41
2019-03-26T23:56:08.243Z,99815.03
2019-03-26T23:58:38.221Z,99815.80
